Time;durP1;ratioP1;P1;durP2;ratioP2;P2;SDS_P1;SDS_P2;PMS_P1;PMS_P2;Temp;Humidity;BMP_temperature;BMP_pressure;BME280_temperature;BME280_humidity;BME280_pressure;Samples;Min_cycle;Max_cycle;Signal;HPM_P1;HPM_P2
2022/06/12 00:02:08;;;;;;;8.00;2.47;;;12.00;99.90;;;;;;5030199;28;20037;-68
2022/06/12 00:04:33;;;;;;;13.57;3.00;;;12.00;99.90;;;;;;5030007;28;20045;-68
2022/06/12 00:06:59;;;;;;;12.32;3.20;;;12.00;99.90;;;;;;5030796;28;20045;-68
2022/06/12 00:09:25;;;;;;;12.02;3.03;;;11.90;99.90;;;;;;5030908;28;20175;-68
2022/06/12 00:11:50;;;;;;;11.65;2.60;;;11.90;99.90;;;;;;5012915;28;21057;-68
2022/06/12 00:14:17;;;;;;;8.88;2.78;;;11.90;99.90;;;;;;5018136;28;20481;-68
2022/06/12 00:16:45;;;;;;;7.25;2.58;;;11.90;99.90;;;;;;5031693;28;20365;-68
2022/06/12 00:19:12;;;;;;;12.30;2.97;;;11.90;99.90;;;;;;5032050;28;20466;-68
2022/06/12 00:21:38;;;;;;;6.47;2.92;;;11.90;99.90;;;;;;4984570;28;20109;-68
2022/06/12 00:24:11;;;;;;;5.45;2.10;;;11.80;99.90;;;;;;5005242;28;20595;-68
2022/06/12 00:26:46;;;;;;;7.30;2.80;;;11.80;99.90;;;;;;5013793;28;20121;-68
2022/06/12 00:29:15;;;;;;;9.68;3.58;;;11.80;99.90;;;;;;5012409;28;20568;-68
2022/06/12 00:31:45;;;;;;;12.68;2.97;;;11.80;99.90;;;;;;5029527;28;20033;-68
2022/06/12 00:34:13;;;;;;;12.38;2.85;;;11.80;99.90;;;;;;5030100;28;20044;-68
2022/06/12 00:36:39;;;;;;;10.30;2.97;;;11.70;99.90;;;;;;5012992;28;20064;-68
2022/06/12 00:39:08;;;;;;;9.25;2.70;;;11.70;99.90;;;;;;5010099;28;20082;-69
2022/06/12 00:41:34;;;;;;;7.05;2.95;;;11.70;99.90;;;;;;4995756;28;20515;-68
2022/06/12 00:44:00;;;;;;;9.00;2.90;;;11.70;99.90;;;;;;5011784;28;20044;-68
2022/06/12 00:46:46;;;;;;;7.38;2.45;;;11.70;99.90;;;;;;5010926;28;20048;-68
2022/06/12 00:49:39;;;;;;;9.30;2.92;;;11.60;99.90;;;;;;5030210;28;20076;-68
2022/06/12 00:52:33;;;;;;;9.15;2.67;;;11.60;99.90;;;;;;5002527;28;20072;-68
2022/06/12 00:55:11;;;;;;;4.90;2.22;;;11.60;99.90;;;;;;5007349;28;20560;-68
2022/06/12 00:57:36;;;;;;;10.63;2.47;;;11.50;99.90;;;;;;5011299;28;20049;-68
2022/06/12 01:00:11;;;;;;;6.72;2.50;;;11.50;99.90;;;;;;5013081;28;20069;-68
2022/06/12 01:02:39;;;;;;;10.10;2.90;;;11.50;99.90;;;;;;5029365;28;20041;-68
2022/06/12 01:07:57;;;;;;;6.95;2.80;;;11.50;99.90;;;;;;5026690;28;20120;-68
2022/06/12 01:10:25;;;;;;;8.35;2.75;;;11.40;99.90;;;;;;5009716;28;20053;-68
2022/06/12 01:13:18;;;;;;;6.00;2.63;;;11.40;99.90;;;;;;5003008;28;20049;-68
2022/06/12 01:15:52;;;;;;;53.85;25.17;;;11.40;99.90;;;;;;5021417;28;20092;-68
2022/06/12 01:18:22;;;;;;;22.73;8.88;;;11.40;99.90;;;;;;5028297;28;20033;-68
2022/06/12 01:20:57;;;;;;;17.98;8.25;;;11.40;99.90;;;;;;5028665;28;20060;-68
2022/06/12 01:23:57;;;;;;;10.90;2.97;;;11.40;99.90;;;;;;5011821;28;20037;-68
2022/06/12 01:26:22;;;;;;;9.32;2.85;;;11.40;99.90;;;;;;5012409;28;20049;-68
2022/06/12 01:29:08;;;;;;;8.65;2.50;;;11.30;99.90;;;;;;5011498;28;20120;-68
2022/06/12 01:31:54;;;;;;;6.93;2.42;;;11.30;99.90;;;;;;5012415;28;20045;-68
2022/06/12 01:34:52;;;;;;;6.97;2.10;;;11.30;99.90;;;;;;5011663;28;20130;-68
2022/06/12 01:37:42;;;;;;;5.53;1.95;;;11.20;99.90;;;;;;4995345;28;20064;-68
2022/06/12 01:40:15;;;;;;;8.35;2.17;;;11.20;99.90;;;;;;5027122;28;20033;-68
2022/06/12 01:42:48;;;;;;;5.55;1.70;;;11.20;99.90;;;;;;5011750;28;20045;-68
2022/06/12 01:45:37;;;;;;;5.43;2.30;;;11.20;99.90;;;;;;5018569;28;20041;-68
2022/06/12 01:48:02;;;;;;;7.65;2.13;;;11.10;99.90;;;;;;5030034;28;20654;-68
2022/06/12 01:50:46;;;;;;;9.38;2.75;;;11.20;99.90;;;;;;5012052;28;20045;-68
2022/06/12 01:53:37;;;;;;;7.68;2.22;;;11.10;99.90;;;;;;5010562;28;20057;-68
2022/06/12 01:56:13;;;;;;;10.63;2.22;;;11.00;99.90;;;;;;5027692;28;20569;-68
2022/06/12 01:59:12;;;;;;;10.80;2.58;;;11.00;99.90;;;;;;5026870;28;20046;-68
2022/06/12 02:01:53;;;;;;;8.18;2.13;;;11.00;99.90;;;;;;5007167;28;20037;-68
2022/06/12 02:04:32;;;;;;;8.40;2.28;;;11.00;99.90;;;;;;5026584;28;20046;-68
2022/06/12 02:07:17;;;;;;;8.10;2.50;;;11.00;99.90;;;;;;5008525;28;20921;-68
2022/06/12 02:09:46;;;;;;;5.80;2.40;;;11.00;99.90;;;;;;5030021;28;20048;-68
2022/06/12 02:15:12;;;;;;;8.13;2.50;;;10.90;99.90;;;;;;5027366;28;20491;-68
2022/06/12 02:17:44;;;;;;;8.75;2.45;;;10.90;99.90;;;;;;5010382;28;20073;-68
2022/06/12 02:20:14;;;;;;;7.57;2.00;;;10.90;99.90;;;;;;5012111;28;20053;-68
2022/06/12 02:22:43;;;;;;;7.03;2.50;;;10.90;99.90;;;;;;5026592;28;20378;-68
2022/06/12 02:25:17;;;;;;;5.60;2.20;;;10.90;99.90;;;;;;5009632;28;20044;-68
2022/06/12 02:27:48;;;;;;;9.18;2.60;;;10.80;99.90;;;;;;5029646;28;20160;-69
2022/06/12 02:30:21;;;;;;;9.02;2.95;;;10.80;99.90;;;;;;5010260;28;20041;-68
2022/06/12 02:32:48;;;;;;;8.43;2.40;;;10.80;99.90;;;;;;5029477;28;20163;-68
2022/06/12 02:35:30;;;;;;;9.60;2.65;;;10.70;99.90;;;;;;5029880;28;20033;-68
2022/06/12 02:38:11;;;;;;;5.43;2.20;;;10.80;99.90;;;;;;5028490;28;20107;-68
2022/06/12 02:40:41;;;;;;;10.13;3.83;;;10.80;99.90;;;;;;5010534;28;20089;-68
2022/06/12 02:43:15;;;;;;;7.70;2.40;;;10.80;99.90;;;;;;5028758;28;20144;-68
2022/06/12 02:46:18;;;;;;;9.43;3.10;;;10.80;99.90;;;;;;5009893;28;20067;-68
2022/06/12 02:48:45;;;;;;;9.40;3.20;;;10.80;99.90;;;;;;4967690;28;20064;-68
2022/06/12 02:51:43;;;;;;;7.72;2.92;;;10.70;99.90;;;;;;5006827;28;20037;-68
2022/06/12 02:54:36;;;;;;;8.70;3.05;;;10.80;99.90;;;;;;5029880;28;20065;-68
2022/06/12 02:57:02;;;;;;;10.88;2.92;;;10.80;99.90;;;;;;5032701;28;20077;-68
2022/06/12 02:59:41;;;;;;;9.60;3.40;;;10.70;99.90;;;;;;5014011;28;20076;-68
2022/06/12 03:02:19;;;;;;;10.75;3.30;;;10.80;99.90;;;;;;5014062;28;20033;-68
2022/06/12 03:04:59;;;;;;;7.68;3.00;;;10.80;99.90;;;;;;5027575;28;20038;-68
2022/06/12 03:07:25;;;;;;;6.22;2.83;;;10.80;99.90;;;;;;5014569;28;20045;-68
2022/06/12 03:09:51;;;;;;;9.32;3.20;;;10.80;99.90;;;;;;5013618;28;20091;-68
2022/06/12 03:12:17;;;;;;;9.02;3.20;;;10.70;99.90;;;;;;5031666;28;20366;-68
2022/06/12 03:14:43;;;;;;;8.75;3.33;;;10.80;99.90;;;;;;5019831;28;20068;-68
2022/06/12 03:17:10;;;;;;;7.28;3.08;;;10.80;99.90;;;;;;5027247;28;20038;-68
2022/06/12 03:19:45;;;;;;;6.47;2.50;;;10.70;99.90;;;;;;5014719;28;20033;-68
2022/06/12 03:22:13;;;;;;;10.15;2.90;;;10.80;99.90;;;;;;5013616;28;20045;-68
2022/06/12 03:25:09;;;;;;;5.20;2.40;;;10.80;99.90;;;;;;5031905;28;20045;-68
2022/06/12 03:27:43;;;;;;;7.25;2.50;;;10.80;99.90;;;;;;5011169;28;20429;-68
2022/06/12 03:30:40;;;;;;;10.55;2.58;;;10.70;99.90;;;;;;5002563;28;20512;-68
2022/06/12 03:33:12;;;;;;;6.65;2.28;;;10.80;99.90;;;;;;5032764;28;20106;-68
2022/06/12 03:36:03;;;;;;;9.52;2.78;;;10.80;99.90;;;;;;5012438;28;20065;-68
2022/06/12 03:38:40;;;;;;;9.40;2.70;;;10.80;99.90;;;;;;5011479;28;20077;-68
2022/06/12 03:41:27;;;;;;;9.00;2.67;;;10.80;99.90;;;;;;5029569;28;20454;-68
2022/06/12 03:44:06;;;;;;;7.65;2.60;;;10.80;99.90;;;;;;5030092;28;20043;-68
2022/06/12 03:46:48;;;;;;;10.63;2.78;;;10.90;99.90;;;;;;4993731;28;20049;-68
2022/06/12 03:49:42;;;;;;;7.10;2.45;;;10.90;99.90;;;;;;5030872;28;20049;-68
2022/06/12 03:52:14;;;;;;;5.40;2.22;;;10.90;99.90;;;;;;5028535;28;20033;-68
2022/06/12 03:54:52;;;;;;;6.70;2.65;;;11.00;99.90;;;;;;5012217;28;20066;-68
2022/06/12 03:57:52;;;;;;;8.57;2.55;;;11.00;99.90;;;;;;5011051;28;20528;-68
2022/06/12 04:00:30;;;;;;;7.97;2.33;;;11.00;99.90;;;;;;5026632;28;20164;-69
2022/06/12 04:03:06;;;;;;;8.68;2.58;;;11.00;99.90;;;;;;5010916;28;20030;-68
2022/06/12 04:05:57;;;;;;;8.98;2.38;;;11.10;99.90;;;;;;5030820;28;20045;-68
2022/06/12 04:08:27;;;;;;;5.05;2.40;;;11.10;99.90;;;;;;5012074;28;20060;-68
2022/06/12 04:10:54;;;;;;;9.57;2.80;;;11.20;99.90;;;;;;5030992;28;20049;-68
2022/06/12 04:13:22;;;;;;;10.10;2.35;;;11.20;99.90;;;;;;5012149;28;20095;-68
2022/06/12 04:16:02;;;;;;;10.57;2.42;;;11.30;99.90;;;;;;5012666;28;20120;-68
2022/06/12 04:18:30;;;;;;;9.20;3.05;;;11.40;99.90;;;;;;5013246;28;20108;-68
2022/06/12 04:20:58;;;;;;;8.32;2.35;;;11.50;99.90;;;;;;4995694;28;20080;-68
2022/06/12 04:23:38;;;;;;;8.80;2.42;;;11.60;99.90;;;;;;4999586;28;20091;-68
2022/06/12 04:26:24;;;;;;;7.55;2.20;;;11.70;99.90;;;;;;5028710;28;20715;-68
2022/06/12 04:29:00;;;;;;;9.95;2.65;;;11.80;99.90;;;;;;5030445;28;20049;-68
2022/06/12 04:31:28;;;;;;;5.45;1.90;;;11.90;99.90;;;;;;5006941;28;20153;-68
2022/06/12 04:34:15;;;;;;;11.57;2.60;;;12.00;99.90;;;;;;5031385;28;20045;-68
2022/06/12 04:36:44;;;;;;;13.93;2.90;;;12.10;99.90;;;;;;5013198;28;20048;-68
2022/06/12 04:39:12;;;;;;;7.85;2.50;;;12.30;99.90;;;;;;5011415;28;20049;-68
2022/06/12 04:41:38;;;;;;;11.02;2.72;;;12.40;99.90;;;;;;5029875;28;20037;-68
2022/06/12 04:44:05;;;;;;;8.25;2.40;;;12.40;99.90;;;;;;5013783;28;20038;-68
2022/06/12 04:46:33;;;;;;;7.45;2.10;;;12.60;99.90;;;;;;5028327;28;20041;-68
2022/06/12 04:48:59;;;;;;;9.05;2.63;;;12.70;99.90;;;;;;5030962;28;20049;-68
2022/06/12 04:51:26;;;;;;;9.40;2.50;;;12.80;99.90;;;;;;5007527;28;20048;-68
2022/06/12 04:53:52;;;;;;;9.15;2.47;;;12.90;99.90;;;;;;5010251;28;20536;-68
2022/06/12 04:56:20;;;;;;;13.30;2.70;;;13.10;99.90;;;;;;5027612;28;20054;-68
2022/06/12 04:58:46;;;;;;;11.57;2.47;;;13.30;99.90;;;;;;5013867;28;20037;-68
2022/06/12 05:01:13;;;;;;;8.30;2.10;;;13.70;99.90;;;;;;5029434;28;20120;-68
2022/06/12 05:03:39;;;;;;;7.75;1.98;;;14.20;99.90;;;;;;5027422;28;20386;-69
2022/06/12 05:06:06;;;;;;;8.18;2.42;;;14.60;99.90;;;;;;5026472;28;20041;-69
2022/06/12 05:08:33;;;;;;;8.90;2.10;;;15.00;99.90;;;;;;5011164;28;20397;-68
2022/06/12 05:10:58;;;;;;;11.85;2.50;;;15.20;99.90;;;;;;5026375;28;20038;-69
2022/06/12 05:13:24;;;;;;;11.38;2.78;;;15.20;99.90;;;;;;5027142;28;20038;-69
2022/06/12 05:15:50;;;;;;;9.57;2.35;;;15.30;99.90;;;;;;5007988;28;20045;-69
2022/06/12 05:18:17;;;;;;;9.50;2.35;;;15.40;99.90;;;;;;5017156;28;20044;-69
2022/06/12 05:20:45;;;;;;;7.90;2.40;;;15.40;99.90;;;;;;5023622;28;20140;-69
2022/06/12 05:23:11;;;;;;;10.55;2.53;;;15.30;99.90;;;;;;5023432;28;20489;-69
2022/06/12 05:25:37;;;;;;;14.77;2.72;;;15.30;99.90;;;;;;5011089;28;20041;-69
2022/06/12 05:28:03;;;;;;;12.40;2.78;;;15.30;99.90;;;;;;5010362;28;20060;-69
2022/06/12 05:30:33;;;;;;;10.32;2.33;;;15.30;99.90;;;;;;5024070;28;20073;-69
2022/06/12 05:33:00;;;;;;;11.18;2.60;;;15.30;99.90;;;;;;5028880;28;20037;-69
2022/06/12 05:35:27;;;;;;;10.18;2.60;;;15.40;99.90;;;;;;5028763;28;20085;-69
2022/06/12 05:37:53;;;;;;;10.77;2.70;;;15.30;99.90;;;;;;5007156;28;20537;-69
2022/06/12 05:40:29;;;;;;;11.32;2.38;;;15.50;99.90;;;;;;5025362;28;20501;-69
2022/06/12 05:42:56;;;;;;;11.60;2.90;;;15.60;99.90;;;;;;5010932;28;20037;-69
2022/06/12 05:45:25;;;;;;;13.73;2.80;;;15.70;99.90;;;;;;4993250;28;20057;-69
2022/06/12 05:47:54;;;;;;;13.02;2.65;;;15.80;99.90;;;;;;5011421;28;20049;-69
2022/06/12 05:50:23;;;;;;;17.33;2.67;;;15.90;99.90;;;;;;5013103;28;20401;-70
2022/06/12 05:52:48;;;;;;;16.33;2.80;;;16.00;99.90;;;;;;5026667;28;20059;-69
2022/06/12 05:55:14;;;;;;;15.00;2.97;;;16.10;99.90;;;;;;5012309;28;20388;-69
2022/06/12 05:57:40;;;;;;;11.38;2.70;;;16.30;99.90;;;;;;5029124;28;20422;-69
2022/06/12 06:00:11;;;;;;;14.73;3.13;;;16.30;99.90;;;;;;5030857;28;20037;-69
2022/06/12 06:02:38;;;;;;;13.02;2.88;;;16.30;99.90;;;;;;5010921;28;20045;-69
2022/06/12 06:05:06;;;;;;;12.50;2.50;;;16.30;99.90;;;;;;5012932;28;20519;-69
2022/06/12 06:07:33;;;;;;;12.80;2.25;;;16.40;99.90;;;;;;5025244;28;20045;-69
2022/06/12 06:09:59;;;;;;;13.23;3.08;;;16.40;99.90;;;;;;5012027;28;20084;-69
2022/06/12 06:12:25;;;;;;;15.90;2.95;;;16.40;99.90;;;;;;5028158;28;20096;-69
2022/06/12 06:14:50;;;;;;;13.25;3.08;;;16.50;99.90;;;;;;5012651;28;20037;-70
2022/06/12 06:17:16;;;;;;;17.10;3.15;;;16.60;99.90;;;;;;5008618;28;20045;-69
2022/06/12 06:19:42;;;;;;;17.77;2.83;;;16.70;99.90;;;;;;5012557;28;20049;-69
2022/06/12 06:22:07;;;;;;;15.45;2.95;;;16.80;99.90;;;;;;5025040;28;20126;-69
2022/06/12 06:24:33;;;;;;;13.55;2.85;;;16.90;99.90;;;;;;5016629;28;20100;-70
2022/06/12 06:26:59;;;;;;;11.95;2.80;;;17.10;99.90;;;;;;5010801;28;20045;-69
2022/06/12 06:29:24;;;;;;;11.95;2.75;;;17.20;99.90;;;;;;5011523;28;20025;-70
2022/06/12 06:31:50;;;;;;;13.80;3.30;;;17.40;99.90;;;;;;5031924;28;20434;-69
2022/06/12 06:34:16;;;;;;;12.85;2.90;;;17.50;99.90;;;;;;5034281;28;20060;-69
2022/06/12 06:36:41;;;;;;;13.50;3.03;;;17.70;99.90;;;;;;5011912;28;20037;-69
2022/06/12 06:39:07;;;;;;;14.02;3.53;;;17.70;99.90;;;;;;5015496;28;20046;-69
2022/06/12 06:41:33;;;;;;;13.13;2.60;;;17.80;99.90;;;;;;5014620;28;20040;-69
2022/06/12 06:46:43;;;;;;;15.20;3.33;;;17.90;99.90;;;;;;5015853;28;20134;-69
2022/06/12 06:49:09;;;;;;;13.48;3.35;;;18.10;99.90;;;;;;5016906;28;20041;-69
2022/06/12 06:51:36;;;;;;;14.52;3.65;;;18.10;99.90;;;;;;5015675;28;20041;-69
2022/06/12 06:54:02;;;;;;;10.55;3.30;;;18.20;99.90;;;;;;5012341;28;20057;-69
2022/06/12 06:56:28;;;;;;;15.82;3.67;;;18.30;99.90;;;;;;5013422;28;20049;-69
2022/06/12 06:58:54;;;;;;;13.20;2.92;;;18.50;99.90;;;;;;5012999;28;20490;-70
2022/06/12 07:01:19;;;;;;;17.33;3.30;;;18.50;99.90;;;;;;5011434;28;20041;-70
2022/06/12 07:03:45;;;;;;;15.48;3.15;;;18.60;99.90;;;;;;5012736;28;20053;-69
2022/06/12 07:06:12;;;;;;;13.02;3.17;;;18.70;99.90;;;;;;5009780;28;20068;-69
2022/06/12 07:08:38;;;;;;;14.77;3.33;;;18.90;99.90;;;;;;5012212;28;20042;-69
2022/06/12 07:11:04;;;;;;;16.58;3.35;;;19.00;99.90;;;;;;5011843;28;20041;-69
2022/06/12 07:13:30;;;;;;;13.88;3.55;;;19.00;99.90;;;;;;5012397;28;20050;-70
2022/06/12 07:15:55;;;;;;;14.95;3.40;;;19.00;99.90;;;;;;5011745;28;20124;-70
2022/06/12 07:18:22;;;;;;;15.70;3.63;;;19.10;99.90;;;;;;5010535;28;20558;-70
2022/06/12 07:20:55;;;;;;;14.30;3.03;;;19.20;99.90;;;;;;5014263;28;20482;-69
2022/06/12 07:23:23;;;;;;;13.85;3.35;;;19.30;99.90;;;;;;5010424;28;20144;-69
2022/06/12 07:25:54;;;;;;;15.55;3.03;;;19.40;99.90;;;;;;5012107;28;20120;-69
2022/06/12 07:28:20;;;;;;;21.20;3.53;;;19.50;99.90;;;;;;5010325;28;20129;-69
2022/06/12 07:30:46;;;;;;;20.77;6.28;;;19.60;99.90;;;;;;5013577;28;20104;-69
2022/06/12 07:33:12;;;;;;;18.25;6.00;;;19.60;99.90;;;;;;5009194;28;20081;-70
2022/06/12 07:35:40;;;;;;;17.98;4.20;;;19.70;99.90;;;;;;5012951;28;20441;-70
2022/06/12 07:38:07;;;;;;;19.20;4.22;;;19.80;99.90;;;;;;5013037;28;20040;-70
2022/06/12 07:40:39;;;;;;;13.75;3.05;;;19.90;99.90;;;;;;4994724;28;20084;-70
2022/06/12 07:43:05;;;;;;;17.15;3.60;;;20.10;99.90;;;;;;5010583;28;20036;-70
2022/06/12 07:45:31;;;;;;;17.08;3.13;;;20.30;99.90;;;;;;5012243;28;20077;-70
2022/06/12 07:47:57;;;;;;;13.95;3.20;;;20.60;99.90;;;;;;5008959;28;20208;-70
2022/06/12 07:50:23;;;;;;;14.77;3.85;;;20.70;99.90;;;;;;5014280;28;20046;-70
2022/06/12 07:52:48;;;;;;;14.50;3.17;;;20.70;99.90;;;;;;5009302;28;20115;-70
2022/06/12 07:55:17;;;;;;;14.40;3.35;;;20.60;99.90;;;;;;5027495;28;20124;-70
2022/06/12 07:57:44;;;;;;;13.15;3.35;;;20.70;99.90;;;;;;5030592;28;20050;-70
2022/06/12 08:00:13;;;;;;;12.98;3.58;;;20.80;99.90;;;;;;5030327;28;20061;-70
2022/06/12 08:02:40;;;;;;;14.38;3.28;;;20.90;99.90;;;;;;5010948;28;20045;-70
2022/06/12 08:05:06;;;;;;;14.85;3.20;;;21.10;99.90;;;;;;5033440;28;20049;-70
2022/06/12 08:07:33;;;;;;;13.80;3.15;;;21.20;99.90;;;;;;5011732;28;20046;-70
2022/06/12 08:09:59;;;;;;;15.10;4.10;;;21.30;99.90;;;;;;5032081;28;20124;-70
2022/06/12 08:12:25;;;;;;;14.80;3.80;;;21.50;99.90;;;;;;5030151;28;20045;-70
2022/06/12 08:14:53;;;;;;;18.15;5.45;;;21.60;99.90;;;;;;5015061;28;20516;-70
2022/06/12 08:17:19;;;;;;;12.20;3.35;;;22.00;99.90;;;;;;5025655;28;20037;-70
2022/06/12 08:22:29;;;;;;;;;;;22.80;99.90;;;;;;5009757;28;20080;-70
2022/06/12 08:24:54;;;;;;;11.52;3.10;;;23.30;99.90;;;;;;4998944;28;19956;-71
2022/06/12 08:27:20;;;;;;;13.88;4.03;;;23.60;99.90;;;;;;5031788;28;20037;-71
2022/06/12 08:29:46;;;;;;;19.63;3.67;;;24.00;99.90;;;;;;5032517;28;20320;-71
2022/06/12 08:32:17;;;;;;;12.43;3.30;;;24.40;99.90;;;;;;5031305;28;20049;-71
2022/06/12 08:34:55;;;;;;;15.05;3.38;;;24.80;98.60;;;;;;5033030;28;20501;-71
2022/06/12 08:37:32;;;;;;;15.82;3.58;;;25.10;97.90;;;;;;5025139;28;20034;-71
2022/06/12 08:39:59;;;;;;;14.60;3.78;;;25.40;96.00;;;;;;5026093;28;20042;-71
2022/06/12 08:42:36;;;;;;;11.25;3.17;;;25.50;95.10;;;;;;5025468;28;20030;-71
2022/06/12 08:45:22;;;;;;;11.55;3.10;;;25.40;94.20;;;;;;5029625;28;20509;-72
2022/06/12 08:48:23;;;;;;;13.88;3.30;;;25.50;91.80;;;;;;5028572;28;20037;-72
2022/06/12 08:51:02;;;;;;;13.60;3.88;;;25.50;91.90;;;;;;4958072;28;20581;-68
2022/06/12 08:54:18;;;;;;;13.40;3.40;;;25.80;92.20;;;;;;5021835;28;20042;-65
2022/06/12 08:56:53;;;;;;;13.57;3.40;;;26.20;88.90;;;;;;5000758;28;20049;-68
2022/06/12 08:59:48;;;;;;;10.95;3.10;;;26.00;87.00;;;;;;5030070;28;20508;-68
2022/06/12 09:02:21;;;;;;;11.77;2.70;;;25.70;87.20;;;;;;5026877;28;20088;-68
2022/06/12 09:04:47;;;;;;;11.82;3.17;;;25.10;84.80;;;;;;5030098;28;20051;-67
2022/06/12 09:07:19;;;;;;;11.57;3.13;;;24.70;83.50;;;;;;5029824;28;20044;-68
2022/06/12 09:09:53;;;;;;;10.23;3.22;;;24.80;86.40;;;;;;5031233;28;20030;-68
2022/06/12 09:12:21;;;;;;;8.20;2.40;;;25.20;87.10;;;;;;5029980;28;20087;-68
2022/06/12 09:15:15;;;;;;;9.77;2.42;;;25.50;87.70;;;;;;5028179;28;20045;-68
2022/06/12 09:17:47;;;;;;;;;;;25.70;83.50;;;;;;5027421;28;20038;-68
2022/06/12 09:20:40;;;;;;;10.15;2.40;;;25.90;86.50;;;;;;5029400;28;19960;-68
2022/06/12 09:23:37;;;;;;;7.85;2.63;;;26.20;82.80;;;;;;5022671;28;20529;-68
2022/06/12 09:26:16;;;;;;;8.02;1.90;;;26.50;80.80;;;;;;5029262;28;20060;-68
2022/06/12 09:29:04;;;;;;;8.10;2.05;;;26.50;70.80;;;;;;5028821;28;20120;-68
2022/06/12 09:31:49;;;;;;;7.75;2.22;;;26.40;72.40;;;;;;5007809;28;20053;-69
2022/06/12 09:34:31;;;;;;;10.23;2.53;;;26.40;69.60;;;;;;5027247;28;20109;-68
2022/06/12 09:40:24;;;;;;;8.40;2.28;;;27.00;68.90;;;;;;5029013;28;20045;-69
2022/06/12 09:42:57;;;;;;;9.48;1.95;;;27.10;66.30;;;;;;5025631;28;20037;-69
2022/06/12 09:45:51;;;;;;;5.97;1.67;;;27.10;65.40;;;;;;5028895;28;20319;-71
2022/06/12 09:48:29;;;;;;;7.85;2.10;;;27.00;63.80;;;;;;5021702;28;20053;-69
2022/06/12 09:51:17;;;;;;;8.07;1.65;;;26.40;61.90;;;;;;5029950;28;20103;-70
2022/06/12 09:54:16;;;;;;;7.00;1.65;;;25.90;63.80;;;;;;5029846;28;20045;-69
2022/06/12 09:56:50;;;;;;;7.13;1.80;;;25.50;64.30;;;;;;5028472;28;20120;-69
2022/06/12 09:59:38;;;;;;;6.38;2.45;;;25.10;65.70;;;;;;5010906;28;20389;-68
2022/06/12 10:02:14;;;;;;;7.55;3.35;;;24.70;65.90;;;;;;5029309;28;20480;-68
2022/06/12 10:05:19;;;;;;;6.78;1.40;;;24.50;66.30;;;;;;5027474;28;20052;-68
2022/06/12 10:08:17;;;;;;;4.78;1.30;;;24.60;70.90;;;;;;5007138;28;20042;-68
2022/06/12 10:11:02;;;;;;;5.93;1.60;;;24.30;63.50;;;;;;5029392;28;20103;-69
2022/06/12 10:13:55;;;;;;;5.85;1.60;;;24.20;67.40;;;;;;5010195;28;20061;-69
2022/06/12 10:16:36;;;;;;;7.28;1.73;;;24.40;66.70;;;;;;5024964;28;20390;-69
2022/06/12 10:19:20;;;;;;;4.93;1.20;;;24.60;65.50;;;;;;5027263;28;20056;-68
2022/06/12 10:21:50;;;;;;;5.88;1.30;;;24.40;63.30;;;;;;5026264;28;20107;-70
2022/06/12 10:24:18;;;;;;;7.63;1.55;;;24.20;64.20;;;;;;5010915;28;20053;-70
2022/06/12 10:26:53;;;;;;;6.53;1.60;;;24.20;66.20;;;;;;5011754;28;20132;-70
2022/06/12 10:29:24;;;;;;;7.28;1.83;;;24.20;66.00;;;;;;5005402;28;20474;-70
2022/06/12 10:32:01;;;;;;;7.20;1.50;;;24.10;66.60;;;;;;5029880;28;20215;-68
2022/06/12 10:34:32;;;;;;;7.13;1.55;;;23.60;64.00;;;;;;5009866;28;20080;-67
2022/06/12 10:37:17;;;;;;;5.53;1.27;;;23.60;67.70;;;;;;5026362;28;20037;-68
2022/06/12 10:39:42;;;;;;;5.10;1.58;;;23.60;65.70;;;;;;5028246;28;20045;-68
2022/06/12 10:42:29;;;;;;;5.82;1.40;;;23.40;66.10;;;;;;5008930;28;20041;-67
2022/06/12 10:44:58;;;;;;;5.65;1.45;;;23.50;66.10;;;;;;5029330;28;20041;-70
2022/06/12 10:47:32;;;;;;;5.28;1.88;;;23.90;67.20;;;;;;5023299;28;20085;-71
2022/06/12 10:50:23;;;;;;;6.05;1.40;;;24.40;65.60;;;;;;4996087;28;20068;-69
2022/06/12 10:53:15;;;;;;;4.22;1.35;;;24.50;64.00;;;;;;5022258;28;20514;-69
2022/06/12 10:55:50;;;;;;;4.85;1.27;;;24.20;62.20;;;;;;5028277;28;20090;-69
2022/06/12 10:58:31;;;;;;;6.90;4.57;;;23.90;63.60;;;;;;5006721;28;20077;-70
2022/06/12 11:01:04;;;;;;;7.65;2.35;;;23.80;64.60;;;;;;5008653;28;20133;-67
2022/06/12 11:04:01;;;;;;;6.05;1.80;;;23.60;63.10;;;;;;5009943;28;20542;-71
2022/06/12 11:07:06;;;;;;;5.80;1.38;;;23.70;63.40;;;;;;5020589;28;20404;-68
2022/06/12 11:09:53;;;;;;;5.32;1.65;;;23.90;64.20;;;;;;5012685;28;20049;-68
2022/06/12 11:12:43;;;;;;;4.15;1.15;;;24.40;63.40;;;;;;5024794;28;20588;-69
2022/06/12 11:15:28;;;;;;;4.47;1.27;;;24.80;61.60;;;;;;5022432;28;20056;-68
2022/06/12 11:17:54;;;;;;;5.13;1.20;;;25.20;63.20;;;;;;5027387;28;20037;-68
2022/06/12 11:21:11;;;;;;;5.30;1.17;;;25.40;59.10;;;;;;5032057;28;20508;-69
2022/06/12 11:23:52;;;;;;;6.53;1.23;;;25.10;57.00;;;;;;4974949;28;20120;-69
2022/06/12 11:26:24;;;;;;;6.93;2.42;;;25.20;58.40;;;;;;5013164;28;20096;-70
2022/06/12 11:29:31;;;;;;;4.40;1.48;;;25.50;61.20;;;;;;5007196;28;20506;-72
2022/06/12 11:32:06;;;;;;;4.63;1.25;;;25.80;57.60;;;;;;5031246;28;20053;-68
2022/06/12 11:34:39;;;;;;;4.38;1.20;;;25.40;56.60;;;;;;5027103;28;20045;-70
2022/06/12 11:37:26;;;;;;;6.72;1.83;;;25.40;58.70;;;;;;5031771;28;20051;-70
2022/06/12 11:40:24;;;;;;;5.80;1.58;;;25.80;58.70;;;;;;5010810;28;20044;-69
2022/06/12 11:43:41;;;;;;;4.65;1.15;;;26.40;59.60;;;;;;5022967;28;20077;-68
2022/06/12 11:47:03;;;;;;;4.32;1.40;;;26.80;56.10;;;;;;4975274;28;20053;-67
2022/06/12 11:50:06;;;;;;;5.38;1.42;;;27.40;54.60;;;;;;4949369;28;20138;-68
2022/06/12 11:53:00;;;;;;;5.85;1.85;;;27.80;53.90;;;;;;4950359;28;20050;-68
2022/06/12 11:55:41;;;;;;;7.18;2.05;;;28.20;52.00;;;;;;5004375;28;20045;-69
2022/06/12 11:58:40;;;;;;;98.32;88.35;;;28.50;52.20;;;;;;5028678;28;20045;-67
2022/06/12 12:01:27;;;;;;;5.97;2.83;;;28.40;50.30;;;;;;5023434;28;20111;-69
2022/06/12 12:04:06;;;;;;;4.70;1.60;;;27.60;50.90;;;;;;5026132;28;20046;-68
2022/06/12 12:06:35;;;;;;;6.60;1.75;;;26.90;51.30;;;;;;5032869;28;20076;-68
2022/06/12 12:09:38;;;;;;;5.72;1.42;;;26.50;52.60;;;;;;5028102;28;20075;-67
2022/06/12 12:12:12;;;;;;;5.35;1.40;;;26.40;53.10;;;;;;4974305;28;20060;-67
2022/06/12 12:14:41;;;;;;;6.82;1.42;;;26.30;54.00;;;;;;5027367;28;20103;-67
2022/06/12 12:17:17;;;;;;;5.70;1.63;;;26.40;55.60;;;;;;5014612;28;20217;-67
2022/06/12 12:19:50;;;;;;;6.75;1.60;;;26.70;56.60;;;;;;5028275;28;20362;-67
2022/06/12 12:22:31;;;;;;;6.40;1.83;;;26.90;55.50;;;;;;5031249;28;20121;-67
2022/06/12 12:25:13;;;;;;;3.33;1.40;;;26.80;54.30;;;;;;5027190;28;20053;-67
2022/06/12 12:27:47;;;;;;;7.00;1.92;;;26.80;54.70;;;;;;5029073;28;20045;-67
2022/06/12 12:30:22;;;;;;;95.93;87.93;;;26.80;53.80;;;;;;5026812;28;20045;-67
2022/06/12 12:32:51;;;;;;;9.48;6.22;;;26.60;54.30;;;;;;5031478;28;20037;-67
2022/06/12 12:43:34;;;;;;;6.75;1.52;;;25.60;55.80;;;;;;5008866;28;20045;-66
2022/06/12 12:46:05;;;;;;;5.65;1.60;;;25.00;57.90;;;;;;5029997;28;20115;-67
2022/06/12 12:48:45;;;;;;;6.57;1.52;;;24.90;59.30;;;;;;5029660;28;20112;-67
2022/06/12 12:51:27;;;;;;;6.03;1.58;;;24.90;59.00;;;;;;5031371;28;20041;-67
2022/06/12 12:54:12;;;;;;;5.68;1.60;;;25.00;58.20;;;;;;5026597;28;20053;-67
2022/06/12 12:57:01;;;;;;;5.63;1.52;;;25.30;59.00;;;;;;5023590;28;20049;-67
2022/06/12 12:59:52;;;;;;;6.53;1.92;;;25.70;56.70;;;;;;5025799;28;20045;-69
2022/06/12 13:02:59;;;;;;;4.80;1.58;;;25.40;57.20;;;;;;5005182;28;20140;-71
2022/06/12 13:05:48;;;;;;;5.18;1.30;;;25.00;58.20;;;;;;4919110;28;20050;-68
2022/06/12 13:08:43;;;;;;;7.85;1.98;;;24.70;58.00;;;;;;5023913;28;20060;-68
2022/06/12 13:11:38;;;;;;;6.97;1.73;;;24.70;59.30;;;;;;5028280;28;20156;-75
2022/06/12 13:14:15;;;;;;;9.45;1.83;;;24.90;59.60;;;;;;5007936;28;20045;-76
2022/06/12 13:17:08;;;;;;;5.35;1.60;;;25.00;58.60;;;;;;5013035;28;20049;-76
2022/06/12 13:19:55;;;;;;;6.88;2.03;;;24.90;58.60;;;;;;5007821;28;20050;-76
2022/06/12 13:22:29;;;;;;;6.03;1.95;;;24.90;59.00;;;;;;5006709;28;20034;-75
2022/06/12 13:25:25;;;;;;;33.28;30.13;;;24.80;59.00;;;;;;5005267;28;20069;-75
2022/06/12 13:27:56;;;;;;;5.03;2.13;;;24.70;58.20;;;;;;5013155;28;20548;-75
2022/06/12 13:30:28;;;;;;;11.20;2.53;;;24.60;59.50;;;;;;5008161;28;20049;-75
2022/06/12 13:33:05;;;;;;;6.20;1.73;;;24.40;59.60;;;;;;4992340;28;20046;-74
2022/06/12 13:35:41;;;;;;;5.95;1.63;;;24.30;60.00;;;;;;5021739;28;20065;-75
2022/06/12 13:38:06;;;;;;;6.63;1.73;;;24.40;59.50;;;;;;5010863;28;20378;-75
2022/06/12 13:40:37;;;;;;;6.78;1.83;;;24.40;60.30;;;;;;5007939;28;20049;-74
2022/06/12 13:43:20;;;;;;;6.53;1.48;;;24.40;60.10;;;;;;5010250;28;20049;-74
2022/06/12 13:45:59;;;;;;;7.93;1.92;;;24.20;59.00;;;;;;5004296;28;20714;-74
2022/06/12 13:48:28;;;;;;;6.28;1.40;;;24.00;59.50;;;;;;5018296;28;20037;-74
2022/06/12 13:51:01;;;;;;;7.78;1.77;;;23.80;60.70;;;;;;5008702;28;20033;-74